Aurora, Oregon
Current Conditions -  °F | °C
As of 7:53 AM on Thursday 30 Oct 2014 (Local Time) from KUAO Reporting Station
Broken Clouds Broken Clouds  
Wind Chill: 54°   Ceiling: 6000
Heat Index: 54°   Visibility: 9mi
Dew Point: 54°   Wind: 0mph
Humidity: 100%   Direction: NA
Pressure: 29.89"   Gusts: NA
Location:  45.23°N, 122.76°W
Report Text: KUAO 301453Z AUTO 00000KT 9SM SCT048 BKN060 BKN100 12/12 A2989 RMK AO2 RAB02E38 SLP121 P0001 60001 T01220122 58009
Loading
Personal Weather Stations






























Interactive Weather Map New forecast layout! Learn more

10-Day Weather Forecast

Advertisements
Track Severe Weather on mobile